sensor_id;sensor_type;location;lat;lon;timestamp;P1;durP1;ratioP1;P2;durP2;ratioP2
7177;SDS011;3630;42.146;24.756;2022-07-04T00:00:53;8.45;;;4.30;;
7177;SDS011;3630;42.146;24.756;2022-07-04T00:03:20;5.90;;;4.03;;
7177;SDS011;3630;42.146;24.756;2022-07-04T00:05:47;14.27;;;3.60;;
7177;SDS011;3630;42.146;24.756;2022-07-04T00:08:15;3.97;;;3.50;;
7177;SDS011;3630;42.146;24.756;2022-07-04T00:10:42;6.57;;;4.03;;
7177;SDS011;3630;42.146;24.756;2022-07-04T00:13:09;8.17;;;3.53;;
7177;SDS011;3630;42.146;24.756;2022-07-04T00:15:36;7.00;;;3.67;;
7177;SDS011;3630;42.146;24.756;2022-07-04T00:18:03;4.40;;;3.40;;
7177;SDS011;3630;42.146;24.756;2022-07-04T00:20:30;9.27;;;3.95;;
7177;SDS011;3630;42.146;24.756;2022-07-04T00:22:57;4.60;;;3.63;;
7177;SDS011;3630;42.146;24.756;2022-07-04T00:25:25;6.83;;;3.87;;
7177;SDS011;3630;42.146;24.756;2022-07-04T00:27:52;4.97;;;3.53;;
7177;SDS011;3630;42.146;24.756;2022-07-04T00:30:19;7.87;;;3.93;;
7177;SDS011;3630;42.146;24.756;2022-07-04T00:32:46;4.87;;;2.97;;
7177;SDS011;3630;42.146;24.756;2022-07-04T00:35:12;3.63;;;3.33;;
7177;SDS011;3630;42.146;24.756;2022-07-04T00:37:39;5.20;;;3.33;;
7177;SDS011;3630;42.146;24.756;2022-07-04T00:40:06;6.15;;;3.65;;
7177;SDS011;3630;42.146;24.756;2022-07-04T00:42:35;14.03;;;6.10;;
7177;SDS011;3630;42.146;24.756;2022-07-04T00:45:02;17.10;;;5.40;;
7177;SDS011;3630;42.146;24.756;2022-07-04T00:47:30;10.00;;;3.70;;
7177;SDS011;3630;42.146;24.756;2022-07-04T00:49:58;21.60;;;4.53;;
7177;SDS011;3630;42.146;24.756;2022-07-04T00:52:25;5.07;;;3.50;;
7177;SDS011;3630;42.146;24.756;2022-07-04T00:54:52;13.80;;;3.33;;
7177;SDS011;3630;42.146;24.756;2022-07-04T00:57:19;5.00;;;3.85;;
7177;SDS011;3630;42.146;24.756;2022-07-04T00:59:47;6.40;;;3.67;;
7177;SDS011;3630;42.146;24.756;2022-07-04T01:02:14;5.77;;;3.30;;
7177;SDS011;3630;42.146;24.756;2022-07-04T01:04:41;8.83;;;3.30;;
7177;SDS011;3630;42.146;24.756;2022-07-04T01:07:08;8.03;;;3.77;;
7177;SDS011;3630;42.146;24.756;2022-07-04T01:09:37;8.90;;;3.97;;
7177;SDS011;3630;42.146;24.756;2022-07-04T01:12:04;6.00;;;3.53;;
7177;SDS011;3630;42.146;24.756;2022-07-04T01:14:32;4.57;;;3.90;;
7177;SDS011;3630;42.146;24.756;2022-07-04T01:17:04;8.40;;;4.07;;
7177;SDS011;3630;42.146;24.756;2022-07-04T01:19:32;8.40;;;3.57;;
7177;SDS011;3630;42.146;24.756;2022-07-04T01:22:04;4.70;;;4.20;;
7177;SDS011;3630;42.146;24.756;2022-07-04T01:24:32;4.40;;;3.53;;
7177;SDS011;3630;42.146;24.756;2022-07-04T01:26:59;5.93;;;3.90;;
7177;SDS011;3630;42.146;24.756;2022-07-04T01:29:26;7.97;;;4.37;;
7177;SDS011;3630;42.146;24.756;2022-07-04T01:31:53;6.70;;;3.40;;
7177;SDS011;3630;42.146;24.756;2022-07-04T01:34:20;7.00;;;3.90;;
7177;SDS011;3630;42.146;24.756;2022-07-04T01:36:46;7.40;;;4.20;;
7177;SDS011;3630;42.146;24.756;2022-07-04T01:39:15;6.93;;;4.17;;
7177;SDS011;3630;42.146;24.756;2022-07-04T01:41:41;6.60;;;3.60;;
7177;SDS011;3630;42.146;24.756;2022-07-04T01:44:08;8.73;;;4.27;;
7177;SDS011;3630;42.146;24.756;2022-07-04T01:46:35;4.87;;;4.33;;
7177;SDS011;3630;42.146;24.756;2022-07-04T01:49:02;8.02;;;4.40;;
7177;SDS011;3630;42.146;24.756;2022-07-04T01:51:29;5.73;;;3.90;;
7177;SDS011;3630;42.146;24.756;2022-07-04T01:53:56;8.17;;;3.37;;
7177;SDS011;3630;42.146;24.756;2022-07-04T01:56:24;4.97;;;3.60;;
7177;SDS011;3630;42.146;24.756;2022-07-04T01:58:51;6.37;;;3.70;;
7177;SDS011;3630;42.146;24.756;2022-07-04T02:01:17;5.70;;;3.73;;
7177;SDS011;3630;42.146;24.756;2022-07-04T02:03:55;5.10;;;3.93;;
7177;SDS011;3630;42.146;24.756;2022-07-04T02:06:23;6.30;;;3.70;;
7177;SDS011;3630;42.146;24.756;2022-07-04T02:08:49;8.45;;;4.40;;
7177;SDS011;3630;42.146;24.756;2022-07-04T02:11:35;10.83;;;4.20;;
7177;SDS011;3630;42.146;24.756;2022-07-04T02:14:22;4.83;;;4.33;;
7177;SDS011;3630;42.146;24.756;2022-07-04T02:16:49;10.13;;;4.47;;
7177;SDS011;3630;42.146;24.756;2022-07-04T02:19:16;4.13;;;3.83;;
7177;SDS011;3630;42.146;24.756;2022-07-04T02:21:43;7.37;;;4.60;;
7177;SDS011;3630;42.146;24.756;2022-07-04T02:24:10;5.03;;;4.33;;
7177;SDS011;3630;42.146;24.756;2022-07-04T02:26:38;10.10;;;4.50;;
7177;SDS011;3630;42.146;24.756;2022-07-04T02:29:05;6.03;;;3.93;;
7177;SDS011;3630;42.146;24.756;2022-07-04T02:31:32;4.80;;;4.40;;
7177;SDS011;3630;42.146;24.756;2022-07-04T02:33:59;5.80;;;4.10;;
7177;SDS011;3630;42.146;24.756;2022-07-04T02:36:26;6.13;;;4.67;;
7177;SDS011;3630;42.146;24.756;2022-07-04T02:38:53;5.37;;;4.40;;
7177;SDS011;3630;42.146;24.756;2022-07-04T02:41:20;7.70;;;4.60;;
7177;SDS011;3630;42.146;24.756;2022-07-04T02:43:48;7.13;;;4.70;;
7177;SDS011;3630;42.146;24.756;2022-07-04T02:46:15;7.13;;;4.87;;
7177;SDS011;3630;42.146;24.756;2022-07-04T02:48:41;8.00;;;5.00;;
7177;SDS011;3630;42.146;24.756;2022-07-04T02:51:08;5.47;;;4.43;;
7177;SDS011;3630;42.146;24.756;2022-07-04T02:53:35;8.27;;;4.33;;
7177;SDS011;3630;42.146;24.756;2022-07-04T02:56:02;11.80;;;5.50;;
7177;SDS011;3630;42.146;24.756;2022-07-04T02:58:30;8.80;;;5.10;;
7177;SDS011;3630;42.146;24.756;2022-07-04T03:00:58;5.73;;;4.93;;
7177;SDS011;3630;42.146;24.756;2022-07-04T03:03:26;8.23;;;4.70;;
7177;SDS011;3630;42.146;24.756;2022-07-04T03:05:53;15.90;;;4.50;;
7177;SDS011;3630;42.146;24.756;2022-07-04T03:08:20;6.07;;;4.57;;
7177;SDS011;3630;42.146;24.756;2022-07-04T03:10:48;6.30;;;4.97;;
7177;SDS011;3630;42.146;24.756;2022-07-04T03:13:16;5.83;;;5.00;;
7177;SDS011;3630;42.146;24.756;2022-07-04T03:15:42;10.47;;;5.17;;
7177;SDS011;3630;42.146;24.756;2022-07-04T03:18:11;9.57;;;5.50;;
7177;SDS011;3630;42.146;24.756;2022-07-04T03:20:38;6.53;;;5.10;;
7177;SDS011;3630;42.146;24.756;2022-07-04T03:23:05;8.77;;;6.27;;
7177;SDS011;3630;42.146;24.756;2022-07-04T03:25:32;8.60;;;5.13;;
7177;SDS011;3630;42.146;24.756;2022-07-04T03:27:59;8.10;;;5.27;;
7177;SDS011;3630;42.146;24.756;2022-07-04T03:30:25;12.80;;;5.95;;
7177;SDS011;3630;42.146;24.756;2022-07-04T03:32:52;9.57;;;5.40;;
7177;SDS011;3630;42.146;24.756;2022-07-04T03:35:21;7.70;;;6.00;;
7177;SDS011;3630;42.146;24.756;2022-07-04T03:37:48;10.47;;;6.13;;
7177;SDS011;3630;42.146;24.756;2022-07-04T03:40:16;7.03;;;5.23;;
7177;SDS011;3630;42.146;24.756;2022-07-04T03:42:43;7.47;;;5.40;;
7177;SDS011;3630;42.146;24.756;2022-07-04T03:45:10;17.40;;;6.73;;
7177;SDS011;3630;42.146;24.756;2022-07-04T03:47:37;10.97;;;5.47;;
7177;SDS011;3630;42.146;24.756;2022-07-04T03:50:04;7.37;;;5.43;;
7177;SDS011;3630;42.146;24.756;2022-07-04T03:52:33;10.90;;;6.23;;
7177;SDS011;3630;42.146;24.756;2022-07-04T03:55:00;5.70;;;5.20;;
7177;SDS011;3630;42.146;24.756;2022-07-04T03:57:27;6.73;;;5.23;;
7177;SDS011;3630;42.146;24.756;2022-07-04T03:59:54;5.63;;;5.13;;
7177;SDS011;3630;42.146;24.756;2022-07-04T04:02:20;6.20;;;5.70;;
7177;SDS011;3630;42.146;24.756;2022-07-04T04:04:47;6.33;;;5.13;;
7177;SDS011;3630;42.146;24.756;2022-07-04T04:07:31;7.23;;;5.80;;
7177;SDS011;3630;42.146;24.756;2022-07-04T04:10:00;6.13;;;5.27;;
7177;SDS011;3630;42.146;24.756;2022-07-04T04:12:26;8.20;;;5.97;;
7177;SDS011;3630;42.146;24.756;2022-07-04T04:14:53;7.43;;;5.73;;
7177;SDS011;3630;42.146;24.756;2022-07-04T04:17:20;9.80;;;5.67;;
7177;SDS011;3630;42.146;24.756;2022-07-04T04:19:47;8.83;;;5.60;;
7177;SDS011;3630;42.146;24.756;2022-07-04T04:22:14;10.50;;;5.07;;
7177;SDS011;3630;42.146;24.756;2022-07-04T04:24:42;7.07;;;5.00;;
7177;SDS011;3630;42.146;24.756;2022-07-04T04:27:09;7.60;;;4.93;;
7177;SDS011;3630;42.146;24.756;2022-07-04T04:29:36;7.90;;;5.13;;
7177;SDS011;3630;42.146;24.756;2022-07-04T04:32:03;11.53;;;6.60;;
7177;SDS011;3630;42.146;24.756;2022-07-04T04:34:30;8.03;;;5.63;;
7177;SDS011;3630;42.146;24.756;2022-07-04T04:36:58;6.33;;;5.73;;
7177;SDS011;3630;42.146;24.756;2022-07-04T04:39:25;9.80;;;5.57;;
7177;SDS011;3630;42.146;24.756;2022-07-04T04:41:54;10.20;;;8.30;;
7177;SDS011;3630;42.146;24.756;2022-07-04T04:44:20;13.15;;;10.07;;
7177;SDS011;3630;42.146;24.756;2022-07-04T04:46:47;6.47;;;5.43;;
7177;SDS011;3630;42.146;24.756;2022-07-04T04:49:14;10.73;;;5.13;;
7177;SDS011;3630;42.146;24.756;2022-07-04T04:51:42;13.13;;;5.60;;
7177;SDS011;3630;42.146;24.756;2022-07-04T04:54:09;9.43;;;6.27;;
7177;SDS011;3630;42.146;24.756;2022-07-04T04:56:35;13.63;;;6.47;;
7177;SDS011;3630;42.146;24.756;2022-07-04T04:59:04;9.77;;;6.23;;
7177;SDS011;3630;42.146;24.756;2022-07-04T05:01:32;6.97;;;5.90;;
7177;SDS011;3630;42.146;24.756;2022-07-04T05:03:59;10.20;;;6.07;;
7177;SDS011;3630;42.146;24.756;2022-07-04T05:06:26;10.17;;;6.03;;
7177;SDS011;3630;42.146;24.756;2022-07-04T05:08:53;9.27;;;6.50;;
7177;SDS011;3630;42.146;24.756;2022-07-04T05:11:20;9.07;;;6.37;;
7177;SDS011;3630;42.146;24.756;2022-07-04T05:13:47;13.80;;;6.60;;
7177;SDS011;3630;42.146;24.756;2022-07-04T05:16:15;9.33;;;5.87;;
7177;SDS011;3630;42.146;24.756;2022-07-04T05:18:42;7.53;;;6.67;;
7177;SDS011;3630;42.146;24.756;2022-07-04T05:21:09;7.67;;;6.13;;
7177;SDS011;3630;42.146;24.756;2022-07-04T05:23:36;10.53;;;6.70;;
7177;SDS011;3630;42.146;24.756;2022-07-04T05:26:03;13.43;;;7.33;;
7177;SDS011;3630;42.146;24.756;2022-07-04T05:28:29;11.47;;;6.70;;
7177;SDS011;3630;42.146;24.756;2022-07-04T05:30:56;10.40;;;6.93;;
7177;SDS011;3630;42.146;24.756;2022-07-04T05:33:24;10.17;;;5.97;;
7177;SDS011;3630;42.146;24.756;2022-07-04T05:35:51;7.93;;;6.03;;
7177;SDS011;3630;42.146;24.756;2022-07-04T05:38:18;8.73;;;5.50;;
7177;SDS011;3630;42.146;24.756;2022-07-04T05:40:45;5.67;;;5.13;;
7177;SDS011;3630;42.146;24.756;2022-07-04T05:43:12;7.87;;;4.90;;
7177;SDS011;3630;42.146;24.756;2022-07-04T05:45:39;10.23;;;5.47;;
7177;SDS011;3630;42.146;24.756;2022-07-04T05:48:06;5.40;;;4.87;;
7177;SDS011;3630;42.146;24.756;2022-07-04T05:50:34;9.83;;;5.20;;
7177;SDS011;3630;42.146;24.756;2022-07-04T05:53:01;8.80;;;5.37;;
7177;SDS011;3630;42.146;24.756;2022-07-04T05:55:28;7.37;;;5.30;;
7177;SDS011;3630;42.146;24.756;2022-07-04T05:57:56;8.23;;;4.33;;
7177;SDS011;3630;42.146;24.756;2022-07-04T06:00:23;9.90;;;4.60;;
7177;SDS011;3630;42.146;24.756;2022-07-04T06:02:50;8.03;;;4.93;;
7177;SDS011;3630;42.146;24.756;2022-07-04T06:05:17;8.27;;;4.80;;
7177;SDS011;3630;42.146;24.756;2022-07-04T06:07:45;8.80;;;5.23;;
7177;SDS011;3630;42.146;24.756;2022-07-04T06:10:13;6.43;;;5.10;;
7177;SDS011;3630;42.146;24.756;2022-07-04T06:12:40;10.90;;;4.30;;
7177;SDS011;3630;42.146;24.756;2022-07-04T06:15:07;6.30;;;4.07;;
7177;SDS011;3630;42.146;24.756;2022-07-04T06:17:35;10.17;;;4.60;;
7177;SDS011;3630;42.146;24.756;2022-07-04T06:20:02;4.57;;;4.17;;
7177;SDS011;3630;42.146;24.756;2022-07-04T06:22:37;9.80;;;4.40;;
7177;SDS011;3630;42.146;24.756;2022-07-04T06:25:09;10.33;;;5.13;;
7177;SDS011;3630;42.146;24.756;2022-07-04T06:27:37;8.50;;;4.97;;
7177;SDS011;3630;42.146;24.756;2022-07-04T06:30:04;5.87;;;4.43;;
7177;SDS011;3630;42.146;24.756;2022-07-04T06:32:40;5.90;;;4.43;;
7177;SDS011;3630;42.146;24.756;2022-07-04T06:35:10;7.50;;;4.70;;
7177;SDS011;3630;42.146;24.756;2022-07-04T06:38:10;5.17;;;4.70;;
7177;SDS011;3630;42.146;24.756;2022-07-04T06:40:39;5.20;;;4.43;;
7177;SDS011;3630;42.146;24.756;2022-07-04T06:43:06;6.77;;;4.43;;
7177;SDS011;3630;42.146;24.756;2022-07-04T06:45:33;8.53;;;4.77;;
7177;SDS011;3630;42.146;24.756;2022-07-04T06:48:00;6.22;;;4.72;;
7177;SDS011;3630;42.146;24.756;2022-07-04T06:50:27;5.85;;;4.35;;
7177;SDS011;3630;42.146;24.756;2022-07-04T06:52:57;5.30;;;4.68;;
7177;SDS011;3630;42.146;24.756;2022-07-04T06:55:24;10.07;;;4.20;;
7177;SDS011;3630;42.146;24.756;2022-07-04T06:58:01;6.20;;;4.77;;
7177;SDS011;3630;42.146;24.756;2022-07-04T07:00:29;8.50;;;4.60;;
7177;SDS011;3630;42.146;24.756;2022-07-04T07:02:56;5.60;;;4.57;;
7177;SDS011;3630;42.146;24.756;2022-07-04T07:05:24;9.77;;;4.20;;
7177;SDS011;3630;42.146;24.756;2022-07-04T07:07:51;7.57;;;4.20;;
7177;SDS011;3630;42.146;24.756;2022-07-04T07:10:18;5.35;;;4.47;;
7177;SDS011;3630;42.146;24.756;2022-07-04T07:12:45;4.65;;;4.15;;
7177;SDS011;3630;42.146;24.756;2022-07-04T07:15:13;9.60;;;5.00;;
7177;SDS011;3630;42.146;24.756;2022-07-04T07:17:42;6.90;;;4.93;;
7177;SDS011;3630;42.146;24.756;2022-07-04T07:20:10;6.90;;;4.25;;
7177;SDS011;3630;42.146;24.756;2022-07-04T07:22:38;7.55;;;4.70;;
7177;SDS011;3630;42.146;24.756;2022-07-04T07:25:05;6.73;;;4.90;;
7177;SDS011;3630;42.146;24.756;2022-07-04T07:27:32;9.77;;;4.53;;
7177;SDS011;3630;42.146;24.756;2022-07-04T07:29:59;7.07;;;5.53;;
7177;SDS011;3630;42.146;24.756;2022-07-04T07:32:27;5.93;;;5.20;;
7177;SDS011;3630;42.146;24.756;2022-07-04T07:34:54;8.50;;;4.97;;
7177;SDS011;3630;42.146;24.756;2022-07-04T07:37:21;7.45;;;4.90;;
7177;SDS011;3630;42.146;24.756;2022-07-04T07:39:48;9.15;;;4.75;;
7177;SDS011;3630;42.146;24.756;2022-07-04T07:42:15;7.50;;;5.05;;
7177;SDS011;3630;42.146;24.756;2022-07-04T07:44:42;6.97;;;5.25;;
7177;SDS011;3630;42.146;24.756;2022-07-04T07:47:11;6.78;;;4.97;;
7177;SDS011;3630;42.146;24.756;2022-07-04T07:49:39;8.40;;;4.95;;
7177;SDS011;3630;42.146;24.756;2022-07-04T07:52:06;5.70;;;5.20;;
7177;SDS011;3630;42.146;24.756;2022-07-04T07:54:33;5.70;;;5.18;;
7177;SDS011;3630;42.146;24.756;2022-07-04T07:57:00;8.70;;;5.35;;
7177;SDS011;3630;42.146;24.756;2022-07-04T07:59:27;10.00;;;5.47;;
7177;SDS011;3630;42.146;24.756;2022-07-04T08:01:54;6.28;;;4.63;;
7177;SDS011;3630;42.146;24.756;2022-07-04T08:04:21;6.43;;;4.85;;
7177;SDS011;3630;42.146;24.756;2022-07-04T08:07:04;5.32;;;4.93;;
7177;SDS011;3630;42.146;24.756;2022-07-04T08:09:33;5.43;;;5.03;;
7177;SDS011;3630;42.146;24.756;2022-07-04T08:12:02;9.40;;;5.40;;
7177;SDS011;3630;42.146;24.756;2022-07-04T08:14:30;6.97;;;5.60;;
7177;SDS011;3630;42.146;24.756;2022-07-04T08:16:59;6.57;;;5.03;;
7177;SDS011;3630;42.146;24.756;2022-07-04T08:19:26;6.15;;;4.78;;
7177;SDS011;3630;42.146;24.756;2022-07-04T08:21:53;5.43;;;4.60;;
7177;SDS011;3630;42.146;24.756;2022-07-04T08:24:22;7.85;;;4.90;;
7177;SDS011;3630;42.146;24.756;2022-07-04T08:26:48;7.45;;;5.32;;
7177;SDS011;3630;42.146;24.756;2022-07-04T08:29:16;7.00;;;5.35;;
7177;SDS011;3630;42.146;24.756;2022-07-04T08:31:43;6.90;;;4.78;;
7177;SDS011;3630;42.146;24.756;2022-07-04T08:34:10;6.63;;;5.55;;
7177;SDS011;3630;42.146;24.756;2022-07-04T08:36:37;5.88;;;4.82;;
7177;SDS011;3630;42.146;24.756;2022-07-04T08:39:04;5.70;;;5.07;;
7177;SDS011;3630;42.146;24.756;2022-07-04T08:41:34;7.63;;;4.78;;
7177;SDS011;3630;42.146;24.756;2022-07-04T08:44:04;8.02;;;4.80;;
7177;SDS011;3630;42.146;24.756;2022-07-04T08:46:32;6.43;;;5.38;;
7177;SDS011;3630;42.146;24.756;2022-07-04T08:49:02;6.13;;;5.03;;
7177;SDS011;3630;42.146;24.756;2022-07-04T08:51:39;6.60;;;4.55;;
7177;SDS011;3630;42.146;24.756;2022-07-04T08:54:13;7.10;;;5.00;;
7177;SDS011;3630;42.146;24.756;2022-07-04T08:56:59;10.93;;;8.07;;
7177;SDS011;3630;42.146;24.756;2022-07-04T08:59:43;5.22;;;4.72;;
7177;SDS011;3630;42.146;24.756;2022-07-04T09:02:14;6.47;;;4.80;;
7177;SDS011;3630;42.146;24.756;2022-07-04T09:04:42;8.57;;;5.13;;
7177;SDS011;3630;42.146;24.756;2022-07-04T09:07:10;4.63;;;4.20;;
7177;SDS011;3630;42.146;24.756;2022-07-04T09:09:38;4.55;;;4.15;;
7177;SDS011;3630;42.146;24.756;2022-07-04T09:12:07;4.75;;;4.45;;
7177;SDS011;3630;42.146;24.756;2022-07-04T09:14:35;6.32;;;5.38;;
7177;SDS011;3630;42.146;24.756;2022-07-04T09:17:02;8.88;;;6.38;;
7177;SDS011;3630;42.146;24.756;2022-07-04T09:19:29;6.57;;;4.22;;
7177;SDS011;3630;42.146;24.756;2022-07-04T09:21:59;3.15;;;2.83;;
7177;SDS011;3630;42.146;24.756;2022-07-04T09:24:45;4.35;;;3.13;;
7177;SDS011;3630;42.146;24.756;2022-07-04T09:27:15;6.30;;;3.60;;
7177;SDS011;3630;42.146;24.756;2022-07-04T09:29:56;5.22;;;3.70;;
7177;SDS011;3630;42.146;24.756;2022-07-04T09:32:24;4.60;;;4.05;;
7177;SDS011;3630;42.146;24.756;2022-07-04T09:35:00;4.70;;;4.07;;
7177;SDS011;3630;42.146;24.756;2022-07-04T09:37:33;6.10;;;4.45;;
7177;SDS011;3630;42.146;24.756;2022-07-04T09:40:01;6.07;;;4.60;;
7177;SDS011;3630;42.146;24.756;2022-07-04T09:42:35;7.47;;;4.97;;
7177;SDS011;3630;42.146;24.756;2022-07-04T09:45:06;6.72;;;4.82;;
7177;SDS011;3630;42.146;24.756;2022-07-04T09:47:35;5.75;;;4.25;;
7177;SDS011;3630;42.146;24.756;2022-07-04T09:50:03;6.18;;;3.63;;
7177;SDS011;3630;42.146;24.756;2022-07-04T09:52:32;7.82;;;7.18;;
7177;SDS011;3630;42.146;24.756;2022-07-04T09:55:09;5.20;;;4.70;;
7177;SDS011;3630;42.146;24.756;2022-07-04T09:57:37;7.90;;;4.03;;
7177;SDS011;3630;42.146;24.756;2022-07-04T10:00:17;4.70;;;4.30;;
7177;SDS011;3630;42.146;24.756;2022-07-04T10:02:45;6.35;;;5.05;;
7177;SDS011;3630;42.146;24.756;2022-07-04T10:05:16;4.93;;;4.25;;
7177;SDS011;3630;42.146;24.756;2022-07-04T10:07:46;6.40;;;4.03;;
7177;SDS011;3630;42.146;24.756;2022-07-04T10:10:26;6.93;;;5.85;;
7177;SDS011;3630;42.146;24.756;2022-07-04T10:12:58;6.07;;;5.47;;
7177;SDS011;3630;42.146;24.756;2022-07-04T10:15:28;5.78;;;3.83;;
7177;SDS011;3630;42.146;24.756;2022-07-04T10:17:55;9.40;;;5.32;;
7177;SDS011;3630;42.146;24.756;2022-07-04T10:20:22;8.38;;;4.55;;
7177;SDS011;3630;42.146;24.756;2022-07-04T10:22:49;4.80;;;4.35;;
7177;SDS011;3630;42.146;24.756;2022-07-04T10:25:16;6.85;;;4.55;;
7177;SDS011;3630;42.146;24.756;2022-07-04T10:27:43;7.13;;;3.65;;
7177;SDS011;3630;42.146;24.756;2022-07-04T10:30:13;7.97;;;4.68;;
7177;SDS011;3630;42.146;24.756;2022-07-04T10:32:43;5.00;;;4.50;;
7177;SDS011;3630;42.146;24.756;2022-07-04T10:35:12;4.70;;;3.72;;
7177;SDS011;3630;42.146;24.756;2022-07-04T10:40:40;7.13;;;3.75;;
7177;SDS011;3630;42.146;24.756;2022-07-04T10:46:26;5.55;;;4.00;;
7177;SDS011;3630;42.146;24.756;2022-07-04T10:49:04;8.18;;;5.82;;
7177;SDS011;3630;42.146;24.756;2022-07-04T10:51:37;8.85;;;7.28;;
7177;SDS011;3630;42.146;24.756;2022-07-04T10:54:07;4.70;;;4.18;;
7177;SDS011;3630;42.146;24.756;2022-07-04T10:56:39;6.80;;;5.05;;
7177;SDS011;3630;42.146;24.756;2022-07-04T10:59:09;7.30;;;6.47;;
7177;SDS011;3630;42.146;24.756;2022-07-04T11:01:39;6.57;;;3.75;;
7177;SDS011;3630;42.146;24.756;2022-07-04T11:04:11;7.78;;;4.10;;
7177;SDS011;3630;42.146;24.756;2022-07-04T11:06:51;6.53;;;5.47;;
7177;SDS011;3630;42.146;24.756;2022-07-04T11:09:20;7.20;;;4.80;;
7177;SDS011;3630;42.146;24.756;2022-07-04T11:11:48;3.97;;;3.60;;
7177;SDS011;3630;42.146;24.756;2022-07-04T11:14:35;6.22;;;4.22;;
7177;SDS011;3630;42.146;24.756;2022-07-04T11:17:07;3.92;;;3.63;;
7177;SDS011;3630;42.146;24.756;2022-07-04T11:19:35;4.63;;;4.22;;
7177;SDS011;3630;42.146;24.756;2022-07-04T11:22:03;8.63;;;4.05;;
7177;SDS011;3630;42.146;24.756;2022-07-04T11:24:31;7.22;;;4.75;;
7177;SDS011;3630;42.146;24.756;2022-07-04T11:26:59;5.70;;;5.10;;
7177;SDS011;3630;42.146;24.756;2022-07-04T11:29:26;5.35;;;4.40;;
7177;SDS011;3630;42.146;24.756;2022-07-04T11:31:53;4.40;;;4.05;;
7177;SDS011;3630;42.146;24.756;2022-07-04T11:34:22;4.85;;;4.40;;
7177;SDS011;3630;42.146;24.756;2022-07-04T11:36:50;8.93;;;4.97;;
7177;SDS011;3630;42.146;24.756;2022-07-04T11:39:19;6.70;;;3.92;;
7177;SDS011;3630;42.146;24.756;2022-07-04T11:41:48;8.18;;;4.43;;
7177;SDS011;3630;42.146;24.756;2022-07-04T11:44:34;7.13;;;4.32;;
7177;SDS011;3630;42.146;24.756;2022-07-04T11:47:20;9.45;;;7.47;;
7177;SDS011;3630;42.146;24.756;2022-07-04T11:49:50;5.70;;;4.18;;
7177;SDS011;3630;42.146;24.756;2022-07-04T11:52:20;5.05;;;4.05;;
7177;SDS011;3630;42.146;24.756;2022-07-04T11:54:48;5.30;;;4.63;;
7177;SDS011;3630;42.146;24.756;2022-07-04T11:57:18;8.32;;;4.53;;
7177;SDS011;3630;42.146;24.756;2022-07-04T11:59:53;4.45;;;4.13;;
7177;SDS011;3630;42.146;24.756;2022-07-04T12:02:22;6.72;;;4.32;;
7177;SDS011;3630;42.146;24.756;2022-07-04T12:04:51;5.13;;;4.15;;
7177;SDS011;3630;42.146;24.756;2022-07-04T12:07:19;6.38;;;5.20;;
7177;SDS011;3630;42.146;24.756;2022-07-04T12:09:47;7.35;;;4.15;;
7177;SDS011;3630;42.146;24.756;2022-07-04T12:12:14;7.03;;;3.83;;
7177;SDS011;3630;42.146;24.756;2022-07-04T12:17:29;4.82;;;4.53;;
7177;SDS011;3630;42.146;24.756;2022-07-04T12:20:10;5.80;;;5.18;;
7177;SDS011;3630;42.146;24.756;2022-07-04T12:22:39;4.30;;;3.90;;
7177;SDS011;3630;42.146;24.756;2022-07-04T12:25:07;5.95;;;4.65;;
7177;SDS011;3630;42.146;24.756;2022-07-04T12:27:51;5.43;;;4.10;;
7177;SDS011;3630;42.146;24.756;2022-07-04T12:30:19;4.50;;;3.65;;
7177;SDS011;3630;42.146;24.756;2022-07-04T12:32:47;4.43;;;4.03;;
7177;SDS011;3630;42.146;24.756;2022-07-04T12:38:09;16.67;;;3.80;;
7177;SDS011;3630;42.146;24.756;2022-07-04T12:40:37;6.72;;;3.67;;
7177;SDS011;3630;42.146;24.756;2022-07-04T12:43:16;3.38;;;3.17;;
7177;SDS011;3630;42.146;24.756;2022-07-04T12:45:43;3.92;;;3.50;;
7177;SDS011;3630;42.146;24.756;2022-07-04T12:48:20;3.50;;;3.30;;
7177;SDS011;3630;42.146;24.756;2022-07-04T12:50:50;6.80;;;5.50;;
7177;SDS011;3630;42.146;24.756;2022-07-04T12:53:19;4.65;;;3.47;;
7177;SDS011;3630;42.146;24.756;2022-07-04T12:55:46;4.15;;;3.75;;
7177;SDS011;3630;42.146;24.756;2022-07-04T12:58:14;4.05;;;3.75;;
7177;SDS011;3630;42.146;24.756;2022-07-04T13:00:42;3.60;;;3.30;;
7177;SDS011;3630;42.146;24.756;2022-07-04T13:03:09;4.93;;;3.90;;
7177;SDS011;3630;42.146;24.756;2022-07-04T13:05:36;7.93;;;3.50;;
7177;SDS011;3630;42.146;24.756;2022-07-04T13:08:05;6.00;;;5.40;;
7177;SDS011;3630;42.146;24.756;2022-07-04T13:10:32;6.10;;;4.13;;
7177;SDS011;3630;42.146;24.756;2022-07-04T13:13:00;8.15;;;3.75;;
7177;SDS011;3630;42.146;24.756;2022-07-04T13:15:27;6.00;;;3.92;;
7177;SDS011;3630;42.146;24.756;2022-07-04T13:17:54;4.70;;;4.25;;
7177;SDS011;3630;42.146;24.756;2022-07-04T13:20:21;8.35;;;5.68;;
7177;SDS011;3630;42.146;24.756;2022-07-04T13:22:48;9.25;;;5.28;;
7177;SDS011;3630;42.146;24.756;2022-07-04T13:25:16;4.00;;;3.70;;
7177;SDS011;3630;42.146;24.756;2022-07-04T13:27:43;4.50;;;4.10;;
7177;SDS011;3630;42.146;24.756;2022-07-04T13:30:11;3.60;;;3.30;;
7177;SDS011;3630;42.146;24.756;2022-07-04T13:32:38;4.88;;;3.50;;
7177;SDS011;3630;42.146;24.756;2022-07-04T13:35:05;4.70;;;4.25;;
7177;SDS011;3630;42.146;24.756;2022-07-04T13:37:33;5.30;;;3.90;;
7177;SDS011;3630;42.146;24.756;2022-07-04T13:40:00;4.90;;;3.72;;
7177;SDS011;3630;42.146;24.756;2022-07-04T13:42:28;3.30;;;3.10;;
7177;SDS011;3630;42.146;24.756;2022-07-04T13:45:12;4.57;;;4.13;;
7177;SDS011;3630;42.146;24.756;2022-07-04T13:47:40;4.78;;;3.90;;
7177;SDS011;3630;42.146;24.756;2022-07-04T13:50:08;4.03;;;3.67;;
7177;SDS011;3630;42.146;24.756;2022-07-04T13:52:35;4.10;;;3.80;;
7177;SDS011;3630;42.146;24.756;2022-07-04T13:55:02;5.15;;;3.60;;
7177;SDS011;3630;42.146;24.756;2022-07-04T13:57:31;5.05;;;3.53;;
7177;SDS011;3630;42.146;24.756;2022-07-04T13:59:58;3.75;;;3.33;;
7177;SDS011;3630;42.146;24.756;2022-07-04T14:02:25;5.78;;;4.32;;
7177;SDS011;3630;42.146;24.756;2022-07-04T14:04:52;4.70;;;3.45;;
7177;SDS011;3630;42.146;24.756;2022-07-04T14:07:19;6.22;;;3.22;;
7177;SDS011;3630;42.146;24.756;2022-07-04T14:09:46;6.00;;;5.40;;
7177;SDS011;3630;42.146;24.756;2022-07-04T14:12:13;4.95;;;3.90;;
7177;SDS011;3630;42.146;24.756;2022-07-04T14:14:41;3.88;;;3.50;;
7177;SDS011;3630;42.146;24.756;2022-07-04T14:17:09;3.20;;;3.00;;
7177;SDS011;3630;42.146;24.756;2022-07-04T14:19:37;5.22;;;3.90;;
7177;SDS011;3630;42.146;24.756;2022-07-04T14:22:04;4.07;;;3.75;;
7177;SDS011;3630;42.146;24.756;2022-07-04T14:24:30;3.80;;;3.50;;
7177;SDS011;3630;42.146;24.756;2022-07-04T14:26:57;4.93;;;3.70;;
7177;SDS011;3630;42.146;24.756;2022-07-04T14:29:24;8.48;;;3.50;;
7177;SDS011;3630;42.146;24.756;2022-07-04T14:31:52;4.10;;;3.40;;
7177;SDS011;3630;42.146;24.756;2022-07-04T14:34:19;6.80;;;4.15;;
7177;SDS011;3630;42.146;24.756;2022-07-04T14:36:46;8.73;;;3.33;;
7177;SDS011;3630;42.146;24.756;2022-07-04T14:39:13;4.93;;;3.55;;
7177;SDS011;3630;42.146;24.756;2022-07-04T14:41:40;5.13;;;3.78;;
7177;SDS011;3630;42.146;24.756;2022-07-04T14:44:06;5.25;;;3.30;;
7177;SDS011;3630;42.146;24.756;2022-07-04T14:46:33;8.65;;;4.32;;
7177;SDS011;3630;42.146;24.756;2022-07-04T14:49:02;4.32;;;3.72;;
7177;SDS011;3630;42.146;24.756;2022-07-04T14:51:28;3.58;;;3.28;;
7177;SDS011;3630;42.146;24.756;2022-07-04T14:53:55;6.07;;;4.32;;
7177;SDS011;3630;42.146;24.756;2022-07-04T14:56:22;4.53;;;3.42;;
7177;SDS011;3630;42.146;24.756;2022-07-04T14:58:49;9.15;;;4.43;;
7177;SDS011;3630;42.146;24.756;2022-07-04T15:01:16;3.65;;;3.40;;
7177;SDS011;3630;42.146;24.756;2022-07-04T15:03:44;4.95;;;3.95;;
7177;SDS011;3630;42.146;24.756;2022-07-04T15:06:13;7.47;;;4.60;;
7177;SDS011;3630;42.146;24.756;2022-07-04T15:08:39;3.60;;;3.30;;
7177;SDS011;3630;42.146;24.756;2022-07-04T15:11:06;3.20;;;3.00;;
7177;SDS011;3630;42.146;24.756;2022-07-04T15:13:33;4.75;;;3.05;;
7177;SDS011;3630;42.146;24.756;2022-07-04T15:16:00;3.50;;;3.00;;
7177;SDS011;3630;42.146;24.756;2022-07-04T15:18:27;5.00;;;4.30;;
7177;SDS011;3630;42.146;24.756;2022-07-04T15:20:54;6.22;;;3.60;;